TimeEST,TemperatureF,Dew PointF,Humidity,Sea Level PressureIn,VisibilityMPH,Wind Direction,Wind SpeedMPH,Gust SpeedMPH,PrecipitationIn,Events,Conditions,WindDirDegrees,DateUTC
12:15 AM,35.6,33.8,93,29.85,5.0,East,6.9,-,0.01,Rain,Light Rain,80,2012-12-26 05:15:00
12:35 AM,35.6,33.8,93,29.75,4.0,East,17.3,26.5,0.03,Rain,Light Rain,80,2012-12-26 05:35:00
12:55 AM,35.6,33.8,93,29.76,7.0,East,11.5,23.0,0.03,Rain,Light Rain,90,2012-12-26 05:55:00
1:15 AM,35.6,35.6,100,29.73,10.0,ENE,13.8,19.6,N/A,,Light Drizzle,70,2012-12-26 06:15:00
1:35 AM,35.6,35.6,100,29.73,10.0,ENE,9.2,-,0.01,,Overcast,70,2012-12-26 06:35:00
1:55 AM,37.4,35.6,93,29.71,10.0,East,12.7,18.4,0.01,Rain,Light Rain,80,2012-12-26 06:55:00
2:15 AM,37.4,35.6,93,29.66,7.0,East,17.3,24.2,0.01,Rain,Light Rain,90,2012-12-26 07:15:00
2:35 AM,37.4,35.6,93,29.64,10.0,East,17.3,23.0,0.01,Rain,Light Rain,90,2012-12-26 07:35:00
2:55 AM,37.4,37.4,100,29.60,10.0,East,15.0,23.0,0.01,,Overcast,80,2012-12-26 07:55:00
3:15 AM,39.2,37.4,93,29.58,10.0,East,11.5,24.2,N/A,,Overcast,90,2012-12-26 08:15:00
3:35 AM,41.0,37.4,87,29.57,10.0,East,12.7,18.4,N/A,,Overcast,90,2012-12-26 08:35:00
4:15 AM,41.0,39.2,93,29.51,10.0,East,13.8,20.7,N/A,Rain-Thunderstorm,Light Thunderstorms and Rain,80,2012-12-26 09:15:00
4:35 AM,41.0,41.0,100,29.49,7.0,East,11.5,19.6,0.01,Rain,Light Rain,80,2012-12-26 09:35:00
4:55 AM,42.8,41.0,93,29.48,10.0,East,6.9,24.2,0.01,Thunderstorm,Overcast,80,2012-12-26 09:55:00
5:15 AM,41.0,39.2,93,29.48,10.0,East,8.1,-,N/A,,Overcast,80,2012-12-26 10:15:00
5:35 AM,41.0,41.0,100,29.46,10.0,ENE,6.9,-,N/A,,Overcast,70,2012-12-26 10:35:00
5:55 AM,42.8,41.0,93,29.43,10.0,East,5.8,-,N/A,,Light Drizzle,80,2012-12-26 10:55:00
6:15 AM,42.8,41.0,93,29.43,10.0,ENE,5.8,-,0.01,Rain,Rain,70,2012-12-26 11:15:00
6:35 AM,42.8,41.0,93,29.44,10.0,NE,4.6,-,0.01,Rain,Light Rain,50,2012-12-26 11:35:00
6:55 AM,42.8,41.0,93,29.42,10.0,ENE,5.8,-,0.01,Rain,Rain,60,2012-12-26 11:55:00
7:15 AM,42.8,41.0,93,29.43,10.0,NNE,4.6,-,0.01,Rain,Light Rain,30,2012-12-26 12:15:00
7:35 AM,42.8,41.0,93,29.43,10.0,ENE,4.6,-,0.01,Rain,Light Rain,60,2012-12-26 12:35:00
7:55 AM,42.8,41.0,93,29.42,10.0,ENE,5.8,-,0.01,Rain,Light Rain,60,2012-12-26 12:55:00
8:15 AM,42.8,42.8,100,29.42,10.0,ENE,4.6,-,N/A,,Overcast,70,2012-12-26 13:15:00
8:35 AM,42.8,42.8,100,29.41,10.0,East,3.5,-,N/A,,Drizzle,90,2012-12-26 13:35:00
8:55 AM,44.6,42.8,93,29.46,7.0,WSW,6.9,-,0.05,Rain,Light Rain,250,2012-12-26 13:55:00
9:15 AM,44.6,42.8,93,29.45,10.0,West,6.9,-,N/A,,Overcast,260,2012-12-26 14:15:00
9:35 AM,44.6,42.8,93,29.47,10.0,SSW,4.6,-,N/A,Rain,Light Rain,210,2012-12-26 14:35:00
9:55 AM,44.6,42.8,93,29.48,5.0,SW,3.5,-,0.02,Rain,Rain,220,2012-12-26 14:55:00
10:15 AM,44.6,42.8,93,29.48,10.0,Calm,Calm,-,0.01,Rain,Light Rain,0,2012-12-26 15:15:00
10:35 AM,46.4,42.8,87,29.48,10.0,WSW,9.2,-,0.01,,Overcast,240,2012-12-26 15:35:00
10:55 AM,46.4,41.0,81,29.48,10.0,WSW,17.3,-,0.01,,Overcast,250,2012-12-26 15:55:00
11:15 AM,44.6,39.2,81,29.49,10.0,SW,12.7,19.6,N/A,,Overcast,230,2012-12-26 16:15:00
11:35 AM,44.6,39.2,81,29.49,10.0,SW,17.3,20.7,N/A,,Overcast,230,2012-12-26 16:35:00
11:55 AM,44.6,37.4,76,29.49,10.0,WSW,15.0,26.5,N/A,,Overcast,240,2012-12-26 16:55:00
12:15 PM,44.6,37.4,76,29.49,10.0,WSW,24.2,29.9,0.01,,Overcast,240,2012-12-26 17:15:00
12:35 PM,44.6,39.2,81,29.50,5.0,WSW,20.7,27.6,0.01,,Drizzle,250,2012-12-26 17:35:00
12:55 PM,41.0,39.2,93,29.50,2.5,WSW,16.1,-,0.01,,Drizzle,240,2012-12-26 17:55:00
1:15 PM,42.8,35.6,76,29.50,10.0,SW,18.4,27.6,N/A,,Overcast,230,2012-12-26 18:15:00
1:35 PM,41.0,35.6,81,29.52,7.0,WSW,17.3,31.1,N/A,,Light Drizzle,240,2012-12-26 18:35:00
1:55 PM,39.2,35.6,87,29.54,4.0,WSW,18.4,27.6,N/A,Rain,Rain,240,2012-12-26 18:55:00
2:15 PM,37.4,33.8,87,29.55,5.0,WSW,16.1,21.9,0.01,Rain,Light Rain,240,2012-12-26 19:15:00
2:35 PM,35.6,33.8,93,29.57,7.0,WSW,23.0,28.8,0.02,Rain,Light Rain,250,2012-12-26 19:35:00
2:55 PM,35.6,33.8,93,29.59,7.0,WSW,21.9,27.6,0.02,,Drizzle,250,2012-12-26 19:55:00
3:15 PM,35.6,32.0,87,29.60,7.0,WSW,21.9,32.2,N/A,,Drizzle,250,2012-12-26 20:15:00
3:35 PM,33.8,32.0,93,29.62,10.0,West,12.7,20.7,N/A,Rain,Light Rain,260,2012-12-26 20:35:00
3:55 PM,33.8,32.0,93,29.64,7.0,West,18.4,25.3,N/A,Rain,Light Rain,270,2012-12-26 20:55:00
4:15 PM,33.8,32.0,93,29.66,4.0,West,16.1,23.0,N/A,Snow,Light Snow,270,2012-12-26 21:15:00
4:35 PM,32.0,32.0,100,29.68,3.0,West,16.1,27.6,N/A,Snow,Light Snow,280,2012-12-26 21:35:00
4:55 PM,32.0,32.0,100,29.70,3.0,West,15.0,18.4,N/A,Snow,Light Snow,280,2012-12-26 21:55:00
5:15 PM,32.0,32.0,100,29.71,2.5,West,13.8,19.6,N/A,Snow,Light Snow,280,2012-12-26 22:15:00
5:35 PM,32.0,30.2,93,29.72,10.0,West,10.4,17.3,N/A,,Overcast,280,2012-12-26 22:35:00
5:55 PM,32.0,30.2,93,29.75,10.0,WNW,16.1,21.9,N/A,,Overcast,290,2012-12-26 22:55:00
6:15 PM,32.0,30.2,93,29.76,10.0,WNW,13.8,18.4,N/A,,Overcast,290,2012-12-26 23:15:00
6:35 PM,32.0,30.2,93,29.79,5.0,WNW,13.8,23.0,N/A,Snow,Light Snow,290,2012-12-26 23:35:00
6:55 PM,32.0,30.2,93,29.81,7.0,WNW,13.8,20.7,N/A,,Overcast,300,2012-12-26 23:55:00
7:15 PM,32.0,30.2,93,29.83,7.0,West,13.8,19.6,N/A,,Overcast,280,2012-12-27 00:15:00
7:35 PM,32.0,30.2,93,29.84,10.0,WNW,10.4,23.0,N/A,,Overcast,290,2012-12-27 00:35:00
8:15 PM,32.0,28.4,87,29.87,10.0,WNW,15.0,24.2,N/A,,Overcast,300,2012-12-27 01:15:00
8:35 PM,32.0,28.4,87,29.88,10.0,WNW,16.1,21.9,N/A,,Overcast,300,2012-12-27 01:35:00
8:55 PM,32.0,28.4,87,29.89,10.0,NW,12.7,20.7,N/A,,Overcast,310,2012-12-27 01:55:00
9:15 PM,32.0,28.4,87,29.91,10.0,NW,17.3,21.9,N/A,,Overcast,310,2012-12-27 02:15:00
9:35 PM,32.0,28.4,87,29.93,10.0,WNW,10.4,18.4,N/A,,Overcast,300,2012-12-27 02:35:00
9:55 PM,32.0,28.4,87,29.94,10.0,NW,10.4,-,N/A,,Overcast,310,2012-12-27 02:55:00
10:15 PM,32.0,28.4,87,29.95,10.0,WNW,10.4,16.1,N/A,,Overcast,300,2012-12-27 03:15:00
10:35 PM,32.0,28.4,87,29.97,10.0,West,17.3,24.2,N/A,,Overcast,280,2012-12-27 03:35:00
10:55 PM,32.0,28.4,87,29.97,10.0,WNW,11.5,20.7,N/A,,Overcast,300,2012-12-27 03:55:00
11:15 PM,32.0,28.4,87,29.98,10.0,WNW,9.2,-,N/A,,Overcast,300,2012-12-27 04:15:00
11:35 PM,32.0,28.4,87,29.98,10.0,West,12.7,-,N/A,,Overcast,280,2012-12-27 04:35:00
11:55 PM,32.0,28.4,87,29.98,10.0,West,6.9,16.1,N/A,,Overcast,280,2012-12-27 04:55:00